createdAt,value
2022-08-05T04:00:32.209Z,79.44
2022-08-05T04:05:33.857Z,79.54
2022-08-05T04:10:37.549Z,80.35
2022-08-05T04:16:43.596Z,80.17
2022-08-05T04:22:09.783Z,80.27
2022-08-05T04:26:44.499Z,80.37
2022-08-05T04:31:43.440Z,80.68
2022-08-05T04:36:46.054Z,80.88
2022-08-05T04:41:44.415Z,80.57
2022-08-05T04:46:43.276Z,80.68
2022-08-05T04:51:43.290Z,80.68
2022-08-05T04:56:43.531Z,80.57
2022-08-05T05:02:06.744Z,81.18
2022-08-05T05:06:44.913Z,80.77
2022-08-05T05:11:55.719Z,81.27
2022-08-05T05:16:43.959Z,80.57
2022-08-05T05:21:42.888Z,80.68
2022-08-05T05:26:42.840Z,81.18
2022-08-05T05:31:42.779Z,81.18
2022-08-05T05:36:42.721Z,81.18
2022-08-05T05:41:42.678Z,81.48
2022-08-05T05:46:42.600Z,81.27
2022-08-05T05:51:49.586Z,81.07
2022-08-05T05:56:43.559Z,80.57
2022-08-05T06:01:57.374Z,80.77
2022-08-05T06:06:47.377Z,81.18
2022-08-05T06:11:48.828Z,80.98
2022-08-05T06:16:43.286Z,81.07
2022-08-05T06:21:49.746Z,81.27
2022-08-05T06:26:51.309Z,81.78
2022-08-05T06:31:43.114Z,81.98
2022-08-05T06:36:57.107Z,82.58
2022-08-05T06:41:43.007Z,82.78
2022-08-05T06:46:41.954Z,82.98
2022-08-05T06:51:41.894Z,82.89
2022-08-05T06:56:41.845Z,83.39
2022-08-05T07:01:42.825Z,83.59
2022-08-05T07:06:41.737Z,83.49
2022-08-05T07:11:42.523Z,83.29
2022-08-05T07:17:57.311Z,82.78
2022-08-05T07:22:00.642Z,83.09
2022-08-05T07:26:42.510Z,83.09
2022-08-05T07:31:54.787Z,82.98
2022-08-05T07:36:42.398Z,83.39
2022-08-05T07:42:13.615Z,83.39
2022-08-05T07:46:48.210Z,83.59
2022-08-05T07:51:53.452Z,83.99
2022-08-05T07:57:02.613Z,84.19
2022-08-05T08:01:52.263Z,83.99
2022-08-05T08:06:42.075Z,84.29
2022-08-05T08:11:47.774Z,84.29
2022-08-05T08:16:50.778Z,84.69
2022-08-05T08:21:41.902Z,84.59
2022-08-05T08:26:41.368Z,84.49
2022-08-05T08:31:41.389Z,84.69
2022-08-05T08:36:49.103Z,84.59
2022-08-05T08:41:52.593Z,84.59
2022-08-05T08:46:41.641Z,84.69
2022-08-05T08:52:04.359Z,84.59
2022-08-05T08:56:47.444Z,84.89
2022-08-05T09:01:42.698Z,85.19
2022-08-05T09:06:40.404Z,84.99
2022-08-05T09:11:53.649Z,85.19
2022-08-05T09:16:41.293Z,85.39
2022-08-05T09:22:21.888Z,85.50
2022-08-05T09:26:41.181Z,85.30
2022-08-05T09:32:42.167Z,84.89
2022-08-05T09:36:54.742Z,84.39
2022-08-05T09:41:41.019Z,83.49
2022-08-05T09:46:39.969Z,83.29
2022-08-05T09:51:41.001Z,82.98
2022-08-05T09:56:39.856Z,83.49
2022-08-05T10:01:40.799Z,83.89
2022-08-05T10:06:39.747Z,84.39
2022-08-05T10:11:39.686Z,84.80
2022-08-05T10:16:52.243Z,84.80
2022-08-05T10:21:41.201Z,83.89
2022-08-05T10:26:52.047Z,84.19
2022-08-05T10:32:52.970Z,84.29
2022-08-05T10:36:40.413Z,83.69
2022-08-05T10:41:45.172Z,81.88
2022-08-05T10:46:40.307Z,80.68
2022-08-05T10:51:48.522Z,80.17
2022-08-05T10:56:40.191Z,79.77
2022-08-05T11:01:54.026Z,78.66
2022-08-05T11:06:40.084Z,80.47
2022-08-05T11:11:44.403Z,81.18
2022-08-05T11:16:47.675Z,80.68
2022-08-05T11:21:48.717Z,80.77
2022-08-05T11:26:40.429Z,80.17
2022-08-05T11:31:58.825Z,78.97
2022-08-05T11:36:40.494Z,79.06
2022-08-05T11:42:01.477Z,79.06
2022-08-05T11:47:09.634Z,78.86
2022-08-05T11:51:49.186Z,79.97
2022-08-05T11:56:41.019Z,79.27
2022-08-05T12:01:38.490Z,78.56
2022-08-05T12:06:38.443Z,79.17
2022-08-05T12:11:40.259Z,79.06
2022-08-05T12:16:38.755Z,78.97
2022-08-05T12:21:39.096Z,77.66
2022-08-05T12:26:38.231Z,77.86
2022-08-05T12:31:45.962Z,76.56
2022-08-05T12:36:39.216Z,79.17
2022-08-05T12:41:43.604Z,79.87
2022-08-05T12:46:39.014Z,79.27
2022-08-05T12:52:13.716Z,77.26
2022-08-05T12:56:38.906Z,80.07
2022-08-05T13:02:01.385Z,80.98
2022-08-05T13:06:38.793Z,79.27
2022-08-05T13:12:02.667Z,78.16
2022-08-05T13:16:38.690Z,76.76
2022-08-05T13:21:48.260Z,78.86
2022-08-05T13:26:38.575Z,77.76
2022-08-05T13:32:03.924Z,80.07
2022-08-05T13:36:38.460Z,80.57
2022-08-05T13:41:37.825Z,81.18
2022-08-05T13:46:37.975Z,81.27
2022-08-05T13:51:41.108Z,83.49
2022-08-05T13:56:37.251Z,84.39
2022-08-05T14:01:46.469Z,84.39
2022-08-05T14:06:38.138Z,83.89
2022-08-05T14:12:00.623Z,83.18
2022-08-05T14:16:38.034Z,82.78
2022-08-05T14:22:10.278Z,81.98
2022-08-05T14:26:51.433Z,82.38
2022-08-05T14:32:03.945Z,82.58
2022-08-05T14:36:37.811Z,80.27
2022-08-05T14:41:36.758Z,79.06
2022-08-05T14:46:37.704Z,79.06
2022-08-05T14:51:36.649Z,79.06
2022-08-05T14:56:38.053Z,78.77
2022-08-05T15:01:48.751Z,79.17
2022-08-05T15:06:37.502Z,79.97
2022-08-05T15:11:51.208Z,79.77
2022-08-05T15:16:37.392Z,79.87
2022-08-05T15:21:36.349Z,80.27
2022-08-05T15:26:36.281Z,80.37
2022-08-05T15:31:36.285Z,80.27
2022-08-05T15:36:36.220Z,80.57
2022-08-05T15:41:55.570Z,80.68
2022-08-05T15:46:37.066Z,81.27
2022-08-05T15:52:04.287Z,81.18
2022-08-05T15:56:36.970Z,81.68
2022-08-05T16:01:39.711Z,82.08
2022-08-05T16:06:36.900Z,81.68
2022-08-05T16:11:42.763Z,80.27
2022-08-05T16:17:58.086Z,76.73
2022-08-05T16:22:48.588Z,78.70
2022-08-05T16:28:04.852Z,79.89
2022-08-05T16:32:48.334Z,80.77
2022-08-05T16:38:02.700Z,80.77
2022-08-05T16:42:48.253Z,81.17
2022-08-05T16:47:54.896Z,81.37
2022-08-05T16:52:48.106Z,81.37
2022-08-05T16:58:00.298Z,81.67
2022-08-05T17:02:47.998Z,81.96
2022-08-05T17:07:52.990Z,81.37
2022-08-05T17:12:51.485Z,81.07
2022-08-05T17:17:54.745Z,80.98
2022-08-05T17:22:47.778Z,80.29
2022-08-05T17:27:47.756Z,81.07
2022-08-05T17:32:46.688Z,81.86
2022-08-05T17:37:48.282Z,82.06
2022-08-05T17:42:51.917Z,81.47
2022-08-05T17:47:52.956Z,81.57
2022-08-05T17:52:53.005Z,81.67
2022-08-05T17:57:48.751Z,81.67
2022-08-05T18:02:46.358Z,81.67
2022-08-05T18:07:46.296Z,81.37
2022-08-05T18:12:46.238Z,81.67
2022-08-05T18:18:00.482Z,81.96
2022-08-05T18:22:54.606Z,82.26
2022-08-05T18:27:52.318Z,82.65
2022-08-05T18:32:53.056Z,82.95
2022-08-05T18:37:46.964Z,82.85
2022-08-05T18:42:45.974Z,82.85
2022-08-05T18:47:50.130Z,83.25
2022-08-05T18:52:51.127Z,83.34
2022-08-05T18:57:52.896Z,83.34
2022-08-05T19:02:46.887Z,83.25
2022-08-05T19:07:46.577Z,83.44
2022-08-05T19:12:46.207Z,83.44
2022-08-05T19:18:08.185Z,83.34
2022-08-05T19:22:46.470Z,83.44
2022-08-05T19:27:45.439Z,83.44
2022-08-05T19:32:45.355Z,83.44
2022-08-05T19:38:04.284Z,83.44
2022-08-05T19:43:00.657Z,83.34
2022-08-05T19:47:46.208Z,83.34
2022-08-05T19:52:47.716Z,83.54
2022-08-05T19:57:47.414Z,83.44
2022-08-05T20:02:46.023Z,83.84
2022-08-05T20:07:48.120Z,83.74
2022-08-05T20:12:48.298Z,83.64
2022-08-05T20:17:44.859Z,83.54
2022-08-05T20:22:44.836Z,83.74
2022-08-05T20:27:44.759Z,83.34
2022-08-05T20:32:45.157Z,83.64
2022-08-05T20:38:06.256Z,83.44
2022-08-05T20:42:45.587Z,83.44
2022-08-05T20:47:44.530Z,83.15
2022-08-05T20:52:44.501Z,83.05
2022-08-05T20:57:45.116Z,83.05
2022-08-05T21:02:51.599Z,83.05
2022-08-05T21:07:45.882Z,82.85
2022-08-05T21:12:57.663Z,82.75
2022-08-05T21:17:45.209Z,82.85
2022-08-05T21:22:44.157Z,82.95
2022-08-05T21:27:47.512Z,83.25
2022-08-05T21:32:44.046Z,83.34
2022-08-05T21:37:52.658Z,83.15
2022-08-05T21:42:45.751Z,83.34
2022-08-05T21:47:56.897Z,83.15
2022-08-05T21:52:47.546Z,83.34
2022-08-05T21:57:43.776Z,83.54
2022-08-05T22:02:43.733Z,83.34
2022-08-05T22:07:59.017Z,83.15
2022-08-05T22:12:44.905Z,83.25
2022-08-05T22:18:58.779Z,84.81
2022-08-05T22:24:02.476Z,84.91
2022-08-05T22:28:56.017Z,84.81
2022-08-05T22:33:57.169Z,84.71
2022-08-05T22:38:56.000Z,85.02
2022-08-05T22:43:54.841Z,84.91
2022-08-05T22:48:54.820Z,85.11
2022-08-05T22:53:55.071Z,84.91
2022-08-05T22:58:54.682Z,84.71
2022-08-05T23:03:58.776Z,84.81
2022-08-05T23:08:54.571Z,84.81
2022-08-05T23:13:54.523Z,84.81
2022-08-05T23:18:54.485Z,84.81
2022-08-05T23:23:54.416Z,84.81
2022-08-05T23:28:54.360Z,84.71
